createdAt,value
2024-03-14T05:04:45.301Z,100489.28
2024-03-14T05:07:49.587Z,100489.28
2024-03-14T05:10:51.944Z,100500.06
2024-03-14T05:13:58.045Z,100496.56
2024-03-14T05:17:01.128Z,100497.63
2024-03-14T05:20:06.436Z,100504.00
2024-03-14T05:27:53.753Z,100508.78
2024-03-14T05:31:06.501Z,100513.56
2024-03-14T05:34:10.910Z,100518.50
2024-03-14T05:37:13.065Z,100523.34
2024-03-14T05:40:15.759Z,100522.88
2024-03-14T05:43:18.027Z,100521.03
2024-03-14T05:46:20.438Z,100523.44
2024-03-14T05:49:22.561Z,100530.03
2024-03-14T05:52:26.750Z,100531.09
2024-03-14T05:55:30.965Z,100529.59
2024-03-14T05:58:33.426Z,100532.03
2024-03-14T06:01:35.658Z,100541.63
2024-03-14T06:04:38.600Z,100531.00
2024-03-14T06:07:41.113Z,100537.16
2024-03-14T06:10:43.711Z,100547.59
2024-03-14T06:13:46.456Z,100548.16
2024-03-14T06:16:50.316Z,100546.81
2024-03-14T06:19:52.518Z,100545.78
2024-03-14T06:22:54.973Z,100561.28
2024-03-14T06:25:57.221Z,100564.22
2024-03-14T06:29:00.581Z,100562.34
2024-03-14T06:32:04.087Z,100556.47
2024-03-14T06:35:10.242Z,100561.56
2024-03-14T06:38:12.540Z,100557.00
2024-03-14T06:41:16.322Z,100556.13
2024-03-14T06:44:18.475Z,100560.69
2024-03-14T06:47:21.856Z,100568.97
2024-03-14T06:50:25.188Z,100568.13
2024-03-14T06:53:28.118Z,100559.00
2024-03-14T06:56:30.448Z,100569.88
2024-03-14T06:59:34.685Z,100578.06
2024-03-14T07:02:41.368Z,100576.72
2024-03-14T07:05:46.684Z,100573.97
2024-03-14T07:08:49.519Z,100587.16
2024-03-14T07:11:52.176Z,100582.50
2024-03-14T07:14:55.428Z,100587.91
2024-03-14T07:18:00.994Z,100581.34
2024-03-14T07:21:04.668Z,100589.41
2024-03-14T07:24:08.264Z,100586.00
2024-03-14T07:27:11.912Z,100583.31
2024-03-14T07:30:17.682Z,100589.41
2024-03-14T07:33:20.116Z,100596.78
2024-03-14T07:36:31.104Z,100601.72
2024-03-14T07:39:35.716Z,100613.13
2024-03-14T07:42:42.175Z,100603.37
2024-03-14T07:45:44.466Z,100612.41
2024-03-14T07:48:55.101Z,100611.75
2024-03-14T07:51:58.553Z,100613.13
2024-03-14T07:55:01.522Z,100613.53
2024-03-14T07:58:04.355Z,100617.22
2024-03-14T08:01:10.964Z,100617.56
2024-03-14T08:04:15.515Z,100621.84
2024-03-14T08:07:23.364Z,100615.38
2024-03-14T08:10:26.296Z,100619.63
2024-03-14T08:13:29.343Z,100612.81
2024-03-14T08:16:32.581Z,100620.75
2024-03-14T08:19:37.064Z,100628.09
2024-03-14T08:22:39.484Z,100627.63
2024-03-14T08:25:42.257Z,100630.03
2024-03-14T08:28:46.767Z,100630.72
2024-03-14T08:31:50.181Z,100626.41
2024-03-14T08:34:55.089Z,100628.94
2024-03-14T08:37:57.535Z,100636.81
2024-03-14T08:41:00.144Z,100626.53
2024-03-14T08:44:06.233Z,100626.16
2024-03-14T08:47:09.417Z,100625.75
2024-03-14T08:50:12.025Z,100632.72
2024-03-14T08:53:16.514Z,100624.97
2024-03-14T08:56:20.796Z,100633.41
2024-03-14T08:59:23.677Z,100630.34
2024-03-14T09:02:28.801Z,100628.38
2024-03-14T09:05:32.801Z,100630.19
2024-03-14T09:08:37.191Z,100631.69
2024-03-14T09:11:40.558Z,100627.56
2024-03-14T09:14:43.908Z,100629.72
2024-03-14T09:17:49.744Z,100633.31
2024-03-14T09:20:56.473Z,100639.47
2024-03-14T09:23:59.462Z,100636.25
2024-03-14T09:27:05.945Z,100633.87
2024-03-14T09:30:10.499Z,100627.31
2024-03-14T09:33:13.511Z,100628.47
2024-03-14T09:36:16.205Z,100622.63
2024-03-14T09:39:20.367Z,100628.06
2024-03-14T09:42:22.958Z,100624.53
2024-03-14T09:45:25.909Z,100617.56
2024-03-14T09:48:31.586Z,100629.16
2024-03-14T09:51:34.409Z,100623.97
2024-03-14T09:54:37.240Z,100620.88
2024-03-14T09:57:40.259Z,100619.91
2024-03-14T10:00:42.843Z,100617.09
2024-03-14T10:03:45.348Z,100612.78
2024-03-14T10:06:47.720Z,100618.50
2024-03-14T10:09:53.624Z,100606.81
2024-03-14T10:12:58.587Z,100610.63
2024-03-14T10:16:01.832Z,100613.63
2024-03-14T10:19:05.552Z,100605.81
2024-03-14T10:22:09.225Z,100608.84
2024-03-14T10:25:18.006Z,100605.75
2024-03-14T10:28:21.588Z,100607.88
2024-03-14T10:31:23.845Z,100599.91
2024-03-14T10:34:26.380Z,100594.94
2024-03-14T10:37:32.222Z,100596.44
2024-03-14T10:40:35.444Z,100587.06
2024-03-14T10:43:43.490Z,100584.66
2024-03-14T10:46:51.476Z,100581.56
2024-03-14T10:49:55.544Z,100579.19
2024-03-14T10:53:01.807Z,100578.75
2024-03-14T10:56:07.382Z,100587.44
2024-03-14T10:59:10.865Z,100576.66
2024-03-14T11:02:15.422Z,100573.75
2024-03-14T11:05:24.114Z,100577.25
2024-03-14T11:08:27.462Z,100569.72
2024-03-14T11:11:33.114Z,100561.78
2024-03-14T11:14:41.668Z,100556.84
2024-03-14T11:17:46.174Z,100547.22
2024-03-14T11:20:53.200Z,100550.91
2024-03-14T11:23:57.593Z,100548.91
2024-03-14T11:27:02.922Z,100545.34
2024-03-14T11:30:16.876Z,100546.22
2024-03-14T11:33:20.480Z,100542.75
2024-03-14T11:36:23.336Z,100531.72
2024-03-14T11:39:27.624Z,100536.56
2024-03-14T11:42:30.256Z,100527.16
2024-03-14T11:45:33.255Z,100529.06
2024-03-14T11:48:38.486Z,100520.91
2024-03-14T11:51:42.880Z,100518.37
2024-03-14T11:54:46.171Z,100520.19
2024-03-14T11:57:49.193Z,100516.62
2024-03-14T12:00:55.114Z,100510.91
2024-03-14T12:03:58.801Z,100513.84
2024-03-14T12:07:04.458Z,100508.03
2024-03-14T12:10:10.841Z,100508.53
2024-03-14T12:13:15.492Z,100513.56
2024-03-14T12:16:19.752Z,100503.81
2024-03-14T12:19:22.190Z,100493.16
2024-03-14T12:22:24.904Z,100497.84
2024-03-14T12:25:27.148Z,100486.56
2024-03-14T12:28:32.347Z,100485.50
2024-03-14T12:31:35.645Z,100485.34
2024-03-14T12:34:43.187Z,100488.53
2024-03-14T12:37:49.667Z,100495.78
2024-03-14T12:40:59.209Z,100486.44
2024-03-14T12:44:01.980Z,100485.16
2024-03-14T12:47:04.593Z,100490.56
2024-03-14T12:50:29.354Z,100493.06
2024-03-14T12:53:33.727Z,100489.38
2024-03-14T12:56:36.495Z,100477.91
2024-03-14T12:59:39.326Z,100477.75
2024-03-14T13:02:50.950Z,100478.81
2024-03-14T13:06:00.490Z,100470.84
2024-03-14T13:09:23.500Z,100467.06
2024-03-14T13:12:26.032Z,100482.56
2024-03-14T13:15:28.232Z,100470.91
2024-03-14T13:18:31.153Z,100476.53
2024-03-14T13:21:51.867Z,100477.97
2024-03-14T13:24:56.032Z,100472.94
2024-03-14T13:28:00.356Z,100473.31
2024-03-14T13:31:03.089Z,100472.19
2024-03-14T13:34:05.532Z,100470.53
2024-03-14T13:37:08.219Z,100465.31
2024-03-14T13:43:24.638Z,100461.75
2024-03-14T13:46:32.612Z,100469.94
2024-03-14T13:49:38.972Z,100467.37
2024-03-14T13:52:41.720Z,100472.62
2024-03-14T13:55:48.636Z,100471.41
2024-03-14T13:58:53.359Z,100466.31
2024-03-14T14:01:55.894Z,100463.72
2024-03-14T14:04:58.407Z,100464.72
2024-03-14T14:08:01.435Z,100462.03
2024-03-14T14:11:05.124Z,100463.72
2024-03-14T14:14:15.901Z,100467.09
2024-03-14T14:17:18.336Z,100472.56
2024-03-14T14:20:22.589Z,100468.38
2024-03-14T14:23:25.007Z,100460.47
2024-03-14T14:26:27.161Z,100466.44
2024-03-14T14:29:30.494Z,100467.16
2024-03-14T14:32:32.704Z,100458.34
2024-03-14T14:35:37.259Z,100460.47
2024-03-14T14:38:39.933Z,100466.56
2024-03-14T14:41:42.490Z,100476.09
2024-03-14T14:44:45.013Z,100461.34
2024-03-14T14:47:47.594Z,100461.53
2024-03-14T14:50:50.003Z,100457.34
2024-03-14T14:53:53.374Z,100458.59
2024-03-14T14:56:55.671Z,100452.19
2024-03-14T14:59:58.863Z,100457.41
2024-03-14T15:03:03.740Z,100451.47
2024-03-14T15:06:07.188Z,100451.22
2024-03-14T15:09:10.406Z,100446.66
2024-03-14T15:12:13.077Z,100447.47
2024-03-14T15:15:17.456Z,100445.28
2024-03-14T15:18:20.168Z,100451.22
2024-03-14T15:21:22.732Z,100450.97
2024-03-14T15:24:28.318Z,100450.37
2024-03-14T15:27:31.080Z,100449.53
2024-03-14T15:30:35.582Z,100446.56
2024-03-14T15:33:38.051Z,100448.69
2024-03-14T15:36:40.787Z,100445.28
2024-03-14T15:39:46.035Z,100445.28
2024-03-14T15:42:49.175Z,100447.72
2024-03-14T15:45:53.011Z,100438.41
2024-03-14T15:48:56.871Z,100448.78
2024-03-14T15:51:59.952Z,100445.53
2024-03-14T15:55:03.044Z,100450.69
2024-03-14T15:58:05.302Z,100449.75
2024-03-14T16:01:09.081Z,100447.19
2024-03-14T16:04:13.060Z,100456.06
2024-03-14T16:07:15.578Z,100456.06
2024-03-14T16:10:18.682Z,100452.22
2024-03-14T16:13:21.071Z,100468.19
2024-03-14T16:16:23.799Z,100465.75
2024-03-14T16:19:27.056Z,100460.16
2024-03-14T16:22:30.892Z,100462.25
2024-03-14T16:25:37.280Z,100467.28
2024-03-14T16:28:42.866Z,100463.09
2024-03-14T16:31:46.914Z,100460.03
2024-03-14T16:34:50.310Z,100465.69
2024-03-14T16:37:52.749Z,100463.63
2024-03-14T16:40:55.251Z,100466.41
2024-03-14T16:43:59.517Z,100470.59
2024-03-14T16:47:01.971Z,100466.50
2024-03-14T16:50:04.373Z,100469.97
2024-03-14T16:53:08.101Z,100474.81
